Sea Drift — WDC2818 — position and weather

sailwx.info

Track history (hours):
 
Tides and Currents Weather Stations Pressure Air Temp Water Temp Dewpoint Dewpoint Depression Visibility Wind Speed Wind Dir Waves Ship Positions

Sea Drift

Owner: Marquette Transportation Company Gulf-Inland, LLC, Jefferson, LA. More information available from US FCC via Universal Licensing System and Coast Guard Vessel Documentation Center.

Last reported at 2015-Mar-06 17:33 UTC. Time now 2015-Mar-06 17:39 UTC.
Position N 29°33' W 094°55'.

Length 23 m; draft 3 m.

Type: Towing. MMSI: 366998080.

Date/timePositionNaut miles runAvg speedWind from/ knotsBaromVisibWave heightAir tempDewpointWater temp
2015-Mar-06 17:33N 29°33' W 094°55'8 7.5
2015-Mar-06 16:33N 29°40' W 094°59'6 6.3
2015-Mar-06 15:33N 29°44' W 095°04'2 2.2
2015-Mar-06 14:33N 29°46' W 095°05'1 1.1
2015-Mar-06 13:31N 29°47' W 095°05'0 0.4
2015-Mar-06 12:30N 29°47' W 095°04'0 0.0
2015-Mar-06 11:33N 29°47' W 095°04'0 0.0
2015-Mar-06 10:33N 29°47' W 095°04'0 0.0
2015-Mar-06 09:22N 29°47' W 095°04'0 0.0
2015-Mar-06 08:33N 29°47' W 095°04'0 0.0
2015-Mar-06 07:33N 29°47' W 095°04'0 0.0
2015-Mar-06 06:33N 29°47' W 095°04'0 0.0
2015-Mar-06 05:33N 29°47' W 095°04'0 0.0
2015-Mar-06 04:33N 29°47' W 095°04'0 0.4
2015-Mar-06 03:33N 29°47' W 095°04'0 0.0
2015-Mar-06 02:33N 29°47' W 095°04'0 0.0
2015-Mar-05 21:23N 29°47' W 095°04'1 0.6
2015-Mar-05 20:26N 29°47' W 095°05'1 1.5
2015-Mar-05 19:31N 29°46' W 095°06'0 0.0
2015-Mar-05 18:33N 29°46' W 095°06'2 1.9
2015-Mar-05 17:33N 29°47' W 095°04'0 0.2
2015-Mar-05 16:32N 29°47' W 095°04'0 0.0
2015-Mar-05 15:23N 29°47' W 095°04'0 0.3
2015-Mar-05 14:33N 29°47' W 095°04'2 1.5
2015-Mar-05 13:20N 29°46' W 095°06'1 1.1
2015-Mar-05 12:22N 29°46' W 095°05'1 0.9
2015-Mar-05 11:29N 29°46' W 095°05'0 0.0
2015-Mar-05 07:22N 29°46' W 095°05'0 0.0
2015-Mar-05 04:18N 29°46' W 095°06'1 0.5
2015-Mar-05 02:21N 29°45' W 095°06'1 1.3
2015-Mar-05 01:30N 29°46' W 095°06'1 1.1
2015-Mar-05 00:22N 29°46' W 095°05'0 0.2
2015-Mar-04 23:04N 29°46' W 095°05'3 5.6
2015-Mar-04 22:33N 29°44' W 095°03'6 6.2
2015-Mar-04 21:33N 29°39' W 094°58'7 7.1
2015-Mar-04 20:33N 29°33' W 094°54'7 7.1
2015-Mar-04 19:31N 29°27' W 094°50'  
2015-Mar-01 02:09N 29°26' W 094°50'6 8.6
2015-Mar-01 01:30N 29°31' W 094°53'8 8.8
2015-Mar-01 00:33N 29°38' W 094°58'8 7.9
2015-Feb-28 23:33N 29°44' W 095°03'2 2.5
2015-Feb-28 22:33N 29°46' W 095°05'2 0.2
2015-Feb-28 13:26N 29°47' W 095°04'2 0.6
2015-Feb-28 10:11N 29°46' W 095°06'2 2.3
2015-Feb-28 09:32N 29°44' W 095°06'6 5.4
2015-Feb-28 08:23N 29°44' W 095°14'0 0.2
2015-Feb-28 07:31N 29°44' W 095°14'0 0.1
2015-Feb-28 06:34N 29°44' W 095°14'5 2.6
2015-Feb-28 04:33N 29°44' W 095°08'3 3.0
2015-Feb-28 03:32N 29°46' W 095°05'2 1.6
2015-Feb-28 02:33N 29°47' W 095°04'0 0.2
2015-Feb-28 01:33N 29°47' W 095°04'0 0.2
2015-Feb-28 00:32N 29°47' W 095°04'2 2.0
2015-Feb-27 23:33N 29°46' W 095°06'0 0.0
2015-Feb-27 22:10N 29°46' W 095°06'0 0.0
2015-Feb-27 21:27N 29°46' W 095°06'0 0.0
2015-Feb-27 19:10N 29°46' W 095°06'1 1.5
2015-Feb-27 18:33N 29°46' W 095°07'0 0.0
2015-Feb-27 17:33N 29°46' W 095°07'1 0.6
2015-Feb-27 16:33N 29°46' W 095°06'1 0.6
2015-Feb-27 15:33N 29°46' W 095°05'7 6.7
2015-Feb-27 14:33N 29°42' W 094°59'8 8.0
2015-Feb-27 13:33N 29°34' W 094°56'8 7.8
2015-Feb-27 12:33N 29°28' W 094°51'6 0.2
2015-Feb-26 09:33N 29°22' W 094°50'1 0.2
2015-Feb-26 05:24N 29°22' W 094°51'7 5.8
2015-Feb-26 04:08N 29°30' W 094°52'5 8.7
2015-Feb-26 03:33N 29°34' W 094°55'9 8.7
2015-Feb-26 02:33N 29°42' W 094°60'6 6.3
2015-Feb-26 01:32N 29°45' W 095°06'1 1.2
2015-Feb-26 00:32N 29°46' W 095°06'0 0.0
2015-Feb-25 23:33N 29°46' W 095°06'0 0.0
2015-Feb-25 22:29N 29°46' W 095°06'2 1.7
2015-Feb-25 21:32N 29°47' W 095°04'1 1.4
2015-Feb-25 20:33N 29°46' W 095°05'5 5.3
2015-Feb-25 19:33N 29°42' W 095°00'7 7.1
2015-Feb-25 18:34N 29°36' W 094°57'7 7.4
2015-Feb-25 17:34N 29°30' W 094°52'  
Track history (hours):
 
Tides and Currents Weather Stations Pressure Air Temp Water Temp Dewpoint Dewpoint Depression Visibility Wind Speed Wind Dir Waves Ship Positions

Sea Drift

Owner: Marquette Transportation Company Gulf-Inland, LLC, Jefferson, LA. More information available from US FCC via Universal Licensing System and Coast Guard Vessel Documentation Center.

Last reported at 2015-Mar-06 17:33 UTC. Time now 2015-Mar-06 17:39 UTC.
Position N 29°33' W 094°55'.

Length 23 m; draft 3 m.

Type: Towing. MMSI: 366998080.

Date/timePositionNaut miles runAvg speedWind from/ knotsBaromVisibWave heightAir tempDewpointWater temp
2015-Mar-06 17:33N 29°33' W 094°55'8 7.5
2015-Mar-06 16:33N 29°40' W 094°59'6 6.3
2015-Mar-06 15:33N 29°44' W 095°04'2 2.2
2015-Mar-06 14:33N 29°46' W 095°05'1 1.1
2015-Mar-06 13:31N 29°47' W 095°05'0 0.4
2015-Mar-06 12:30N 29°47' W 095°04'0 0.0
2015-Mar-06 11:33N 29°47' W 095°04'0 0.0
2015-Mar-06 10:33N 29°47' W 095°04'0 0.0
2015-Mar-06 09:22N 29°47' W 095°04'0 0.0
2015-Mar-06 08:33N 29°47' W 095°04'0 0.0
2015-Mar-06 07:33N 29°47' W 095°04'0 0.0
2015-Mar-06 06:33N 29°47' W 095°04'0 0.0
2015-Mar-06 05:33N 29°47' W 095°04'0 0.0
2015-Mar-06 04:33N 29°47' W 095°04'0 0.4
2015-Mar-06 03:33N 29°47' W 095°04'0 0.0
2015-Mar-06 02:33N 29°47' W 095°04'0 0.0
2015-Mar-05 21:23N 29°47' W 095°04'1 0.6
2015-Mar-05 20:26N 29°47' W 095°05'1 1.5
2015-Mar-05 19:31N 29°46' W 095°06'0 0.0
2015-Mar-05 18:33N 29°46' W 095°06'2 1.9
2015-Mar-05 17:33N 29°47' W 095°04'0 0.2
2015-Mar-05 16:32N 29°47' W 095°04'0 0.0
2015-Mar-05 15:23N 29°47' W 095°04'0 0.3
2015-Mar-05 14:33N 29°47' W 095°04'2 1.5
2015-Mar-05 13:20N 29°46' W 095°06'1 1.1
2015-Mar-05 12:22N 29°46' W 095°05'1 0.9
2015-Mar-05 11:29N 29°46' W 095°05'0 0.0
2015-Mar-05 07:22N 29°46' W 095°05'0 0.0
2015-Mar-05 04:18N 29°46' W 095°06'1 0.5
2015-Mar-05 02:21N 29°45' W 095°06'1 1.3
2015-Mar-05 01:30N 29°46' W 095°06'1 1.1
2015-Mar-05 00:22N 29°46' W 095°05'0 0.2
2015-Mar-04 23:04N 29°46' W 095°05'3 5.6
2015-Mar-04 22:33N 29°44' W 095°03'6 6.2
2015-Mar-04 21:33N 29°39' W 094°58'7 7.1
2015-Mar-04 20:33N 29°33' W 094°54'7 7.1
2015-Mar-04 19:31N 29°27' W 094°50'  
2015-Mar-01 02:09N 29°26' W 094°50'6 8.6
2015-Mar-01 01:30N 29°31' W 094°53'8 8.8
2015-Mar-01 00:33N 29°38' W 094°58'8 7.9
2015-Feb-28 23:33N 29°44' W 095°03'2 2.5
2015-Feb-28 22:33N 29°46' W 095°05'2 0.2
2015-Feb-28 13:26N 29°47' W 095°04'2 0.6
2015-Feb-28 10:11N 29°46' W 095°06'2 2.3
2015-Feb-28 09:32N 29°44' W 095°06'6 5.4
2015-Feb-28 08:23N 29°44' W 095°14'0 0.2
2015-Feb-28 07:31N 29°44' W 095°14'0 0.1
2015-Feb-28 06:34N 29°44' W 095°14'5 2.6
2015-Feb-28 04:33N 29°44' W 095°08'3 3.0
2015-Feb-28 03:32N 29°46' W 095°05'2 1.6
2015-Feb-28 02:33N 29°47' W 095°04'0 0.2
2015-Feb-28 01:33N 29°47' W 095°04'0 0.2
2015-Feb-28 00:32N 29°47' W 095°04'2 2.0
2015-Feb-27 23:33N 29°46' W 095°06'0 0.0
2015-Feb-27 22:10N 29°46' W 095°06'0 0.0
2015-Feb-27 21:27N 29°46' W 095°06'0 0.0
2015-Feb-27 19:10N 29°46' W 095°06'1 1.5
2015-Feb-27 18:33N 29°46' W 095°07'0 0.0
2015-Feb-27 17:33N 29°46' W 095°07'1 0.6
2015-Feb-27 16:33N 29°46' W 095°06'1 0.6
2015-Feb-27 15:33N 29°46' W 095°05'7 6.7
2015-Feb-27 14:33N 29°42' W 094°59'8 8.0
2015-Feb-27 13:33N 29°34' W 094°56'8 7.8
2015-Feb-27 12:33N 29°28' W 094°51'6 0.2
2015-Feb-26 09:33N 29°22' W 094°50'1 0.2
2015-Feb-26 05:24N 29°22' W 094°51'7 5.8
2015-Feb-26 04:08N 29°30' W 094°52'5 8.7
2015-Feb-26 03:33N 29°34' W 094°55'9 8.7
2015-Feb-26 02:33N 29°42' W 094°60'6 6.3
2015-Feb-26 01:32N 29°45' W 095°06'1 1.2
2015-Feb-26 00:32N 29°46' W 095°06'0 0.0
2015-Feb-25 23:33N 29°46' W 095°06'0 0.0
2015-Feb-25 22:29N 29°46' W 095°06'2 1.7
2015-Feb-25 21:32N 29°47' W 095°04'1 1.4
2015-Feb-25 20:33N 29°46' W 095°05'5 5.3
2015-Feb-25 19:33N 29°42' W 095°00'7 7.1
2015-Feb-25 18:34N 29°36' W 094°57'7 7.4
2015-Feb-25 17:34N 29°30' W 094°52'  

Dump ship's entire track history